createdAt,value
2023-05-04T00:00:34.549Z,69.17
2023-05-04T00:03:02.368Z,69.54
2023-05-04T00:05:29.984Z,69.59
2023-05-04T00:07:57.408Z,70.08
2023-05-04T00:10:24.845Z,70.28
2023-05-04T00:12:52.696Z,69.80
2023-05-04T00:15:20.521Z,69.22
2023-05-04T00:17:48.132Z,69.35
2023-05-04T00:20:15.723Z,69.82
2023-05-04T00:22:43.381Z,69.49
2023-05-04T00:25:10.982Z,69.49
2023-05-04T00:27:38.590Z,70.00
2023-05-04T00:30:06.833Z,69.92
2023-05-04T00:32:34.529Z,69.85
2023-05-04T00:35:02.065Z,70.34
2023-05-04T00:37:29.533Z,70.55
2023-05-04T00:39:57.007Z,70.27
2023-05-04T00:42:24.514Z,70.42
2023-05-04T00:44:51.965Z,70.23
2023-05-04T00:47:21.495Z,70.70
2023-05-04T00:49:49.164Z,70.53
2023-05-04T00:52:17.781Z,70.49
2023-05-04T00:54:46.731Z,70.93
2023-05-04T00:57:17.130Z,71.04
2023-05-04T00:59:44.674Z,71.56
2023-05-04T01:02:12.058Z,71.55
2023-05-04T01:04:39.770Z,71.74
2023-05-04T01:07:21.615Z,71.31
2023-05-04T01:10:01.972Z,71.69
2023-05-04T01:12:41.238Z,71.94
2023-05-04T01:15:13.033Z,72.07
2023-05-04T01:17:40.561Z,71.61
2023-05-04T01:20:09.965Z,72.08
2023-05-04T01:22:38.604Z,72.10
2023-05-04T01:25:07.889Z,72.10
2023-05-04T01:27:56.805Z,72.36
2023-05-04T01:30:33.313Z,72.31
2023-05-04T01:33:02.353Z,72.23
2023-05-04T01:35:30.529Z,72.20
2023-05-04T01:37:59.003Z,71.86
2023-05-04T01:40:26.435Z,72.52
2023-05-04T01:42:53.937Z,72.18
2023-05-04T01:45:21.719Z,71.59
2023-05-04T01:47:49.627Z,71.52
2023-05-04T01:50:17.220Z,71.66
2023-05-04T01:52:44.785Z,72.58
2023-05-04T01:55:12.339Z,72.49
2023-05-04T01:57:39.735Z,72.26
2023-05-04T02:00:08.185Z,72.15
2023-05-04T02:02:45.235Z,72.00
2023-05-04T02:05:17.602Z,72.31
2023-05-04T02:07:45.145Z,71.99
2023-05-04T02:10:12.663Z,71.93
2023-05-04T02:12:41.868Z,71.84
2023-05-04T02:15:09.763Z,72.42
2023-05-04T02:17:37.417Z,73.04
2023-05-04T02:20:05.714Z,72.56
2023-05-04T02:22:33.442Z,72.05
2023-05-04T02:25:01.107Z,72.38
2023-05-04T02:27:28.511Z,71.57
2023-05-04T02:29:58.457Z,71.77
2023-05-04T02:32:26.298Z,71.52
2023-05-04T02:34:53.926Z,71.43
2023-05-04T02:37:22.382Z,71.07
2023-05-04T02:39:49.875Z,70.98
2023-05-04T02:42:17.630Z,71.34
2023-05-04T02:44:45.113Z,71.23
2023-05-04T02:47:12.885Z,71.48
2023-05-04T02:49:40.354Z,71.69
2023-05-04T02:52:08.036Z,71.88
2023-05-04T02:54:35.836Z,72.27
2023-05-04T02:57:03.408Z,72.29
2023-05-04T02:59:30.918Z,72.80
2023-05-04T03:01:58.442Z,73.14
2023-05-04T03:04:25.944Z,73.10
2023-05-04T03:06:53.621Z,73.24
2023-05-04T03:09:21.136Z,73.38
2023-05-04T03:11:48.690Z,73.36
2023-05-04T03:14:16.435Z,74.13
2023-05-04T03:16:45.603Z,74.09
2023-05-04T03:19:13.215Z,74.27
2023-05-04T03:21:40.786Z,74.23
2023-05-04T03:24:08.287Z,74.48
2023-05-04T03:26:36.102Z,74.69
2023-05-04T03:29:03.580Z,75.30
2023-05-04T03:31:31.485Z,75.53
2023-05-04T03:33:59.443Z,75.90
2023-05-04T03:36:27.182Z,75.93
2023-05-04T03:38:54.794Z,76.10
2023-05-04T03:41:22.413Z,76.75
2023-05-04T03:43:49.793Z,76.97
2023-05-04T03:46:17.327Z,77.05
2023-05-04T03:48:46.516Z,77.07
2023-05-04T03:51:16.980Z,77.27
2023-05-04T03:53:45.031Z,77.64
2023-05-04T03:56:15.091Z,77.80
2023-05-04T03:58:42.665Z,77.90
2023-05-04T04:01:10.234Z,78.17
2023-05-04T04:03:39.308Z,78.11
2023-05-04T04:06:09.812Z,78.57
2023-05-04T04:08:38.140Z,78.80
2023-05-04T04:11:05.691Z,78.94
2023-05-04T04:13:33.152Z,79.30
2023-05-04T04:16:00.664Z,80.04
2023-05-04T04:18:28.281Z,80.53
2023-05-04T04:20:55.736Z,80.99
2023-05-04T04:23:24.333Z,81.09
2023-05-04T04:25:53.936Z,81.07
2023-05-04T04:28:21.647Z,82.25
2023-05-04T04:30:49.395Z,82.32
2023-05-04T04:33:17.150Z,82.09
2023-05-04T04:35:44.590Z,82.02
2023-05-04T04:38:12.041Z,82.95
2023-05-04T04:40:39.530Z,83.55
2023-05-04T04:43:07.127Z,84.40
2023-05-04T04:45:35.836Z,84.03
2023-05-04T04:48:04.074Z,84.17
2023-05-04T04:50:32.331Z,84.78
2023-05-04T04:53:00.169Z,84.76
2023-05-04T04:55:27.616Z,85.95
2023-05-04T04:57:55.767Z,86.49
2023-05-04T05:00:24.258Z,86.80
2023-05-04T05:02:51.866Z,88.12
2023-05-04T05:05:19.322Z,87.87
2023-05-04T05:07:47.003Z,87.53
2023-05-04T05:10:14.609Z,86.10
2023-05-04T05:12:42.160Z,86.28
2023-05-04T05:15:10.113Z,85.86
2023-05-04T05:17:37.922Z,86.11
2023-05-04T05:20:13.497Z,86.45
2023-05-04T05:22:41.460Z,85.91
2023-05-04T05:25:09.181Z,85.88
2023-05-04T05:27:36.924Z,88.17
2023-05-04T05:30:06.437Z,91.19
2023-05-04T05:32:34.274Z,91.85
2023-05-04T05:35:01.923Z,92.75
2023-05-04T05:37:29.612Z,96.56
2023-05-04T05:39:57.120Z,96.13
2023-05-04T05:42:24.642Z,97.12
2023-05-04T05:44:52.311Z,99.27
2023-05-04T05:47:19.917Z,99.47
2023-05-04T05:49:47.495Z,100.00
2023-05-04T05:52:15.027Z,100.00
2023-05-04T05:54:42.513Z,99.77
2023-05-04T05:57:10.282Z,100.00
2023-05-04T05:59:37.759Z,100.00
2023-05-04T06:02:06.096Z,100.00
2023-05-04T06:04:33.595Z,100.00
2023-05-04T06:07:01.162Z,100.00
2023-05-04T06:09:28.619Z,100.00
2023-05-04T06:11:56.184Z,100.00
2023-05-04T06:14:23.755Z,100.00
2023-05-04T06:16:51.307Z,100.00
2023-05-04T06:19:18.782Z,100.00
2023-05-04T06:21:49.080Z,100.00
2023-05-04T06:24:16.646Z,100.00
2023-05-04T06:26:44.118Z,100.00
2023-05-04T06:29:12.061Z,100.00
2023-05-04T06:31:39.551Z,100.00
2023-05-04T06:34:10.467Z,100.00
2023-05-04T06:36:48.690Z,100.00
2023-05-04T06:39:16.233Z,100.00
2023-05-04T06:41:43.651Z,100.00
2023-05-04T06:44:11.175Z,100.00
2023-05-04T06:46:38.700Z,100.00
2023-05-04T06:49:06.382Z,100.00
2023-05-04T06:51:37.637Z,100.00
2023-05-04T06:54:05.630Z,100.00
2023-05-04T06:56:33.182Z,100.00
2023-05-04T06:59:00.923Z,100.00
2023-05-04T07:01:28.533Z,100.00
2023-05-04T07:03:58.448Z,100.00
2023-05-04T07:06:27.324Z,100.00
2023-05-04T07:08:54.858Z,100.00
2023-05-04T07:11:22.276Z,100.00
2023-05-04T07:13:50.059Z,100.00
2023-05-04T07:16:17.578Z,100.00
2023-05-04T07:18:45.204Z,100.00
2023-05-04T07:21:26.734Z,100.00
2023-05-04T07:23:55.589Z,100.00
2023-05-04T07:26:23.496Z,100.00
2023-05-04T07:28:51.429Z,100.00
2023-05-04T07:31:18.946Z,100.00
2023-05-04T07:33:46.537Z,100.00
2023-05-04T07:36:14.000Z,100.00
2023-05-04T07:38:41.736Z,100.00
2023-05-04T07:41:09.329Z,100.00
2023-05-04T07:43:36.820Z,100.00
2023-05-04T07:46:04.385Z,100.00
2023-05-04T07:48:34.668Z,100.00
2023-05-04T07:51:02.116Z,100.00
2023-05-04T07:53:29.684Z,100.00
2023-05-04T07:56:01.075Z,100.00
2023-05-04T07:58:28.929Z,100.00
2023-05-04T08:00:56.411Z,100.00
2023-05-04T08:03:24.006Z,100.00
2023-05-04T08:05:52.246Z,100.00
2023-05-04T08:08:20.517Z,100.00
2023-05-04T08:10:49.227Z,100.00
2023-05-04T08:13:17.094Z,100.00
2023-05-04T08:15:45.151Z,100.00
2023-05-04T08:18:12.964Z,100.00
2023-05-04T08:20:40.810Z,100.00
2023-05-04T08:23:08.554Z,100.00
2023-05-04T08:25:36.152Z,100.00
2023-05-04T08:28:03.904Z,100.00
2023-05-04T08:30:32.093Z,100.00
2023-05-04T08:33:00.472Z,100.00
2023-05-04T08:35:28.901Z,100.00
2023-05-04T08:37:56.508Z,100.00
2023-05-04T08:40:24.359Z,100.00
2023-05-04T08:42:52.568Z,100.00
2023-05-04T08:45:20.024Z,94.71
2023-05-04T08:47:47.765Z,90.28
2023-05-04T08:50:15.433Z,86.57
2023-05-04T08:52:47.891Z,85.42
2023-05-04T08:55:17.307Z,80.02
2023-05-04T08:57:45.483Z,76.53
2023-05-04T09:00:16.963Z,73.87
2023-05-04T09:02:45.920Z,71.74
2023-05-04T09:05:13.665Z,71.86
2023-05-04T09:07:41.179Z,72.36
2023-05-04T09:10:09.319Z,73.18
2023-05-04T09:12:38.178Z,73.39
2023-05-04T09:15:16.826Z,75.63
2023-05-04T09:18:04.019Z,78.10
2023-05-04T09:20:42.717Z,79.10
2023-05-04T09:23:11.925Z,81.12
2023-05-04T09:25:53.616Z,82.40
2023-05-04T09:28:33.743Z,81.17
2023-05-04T09:31:02.789Z,82.44
2023-05-04T09:33:30.760Z,81.52
2023-05-04T09:36:13.427Z,80.23
2023-05-04T09:38:41.470Z,77.31
2023-05-04T09:41:09.451Z,76.69
2023-05-04T09:43:41.796Z,72.50
2023-05-04T09:46:19.404Z,71.88
2023-05-04T09:48:55.730Z,73.20
2023-05-04T09:51:25.670Z,72.87
2023-05-04T09:53:54.037Z,74.04
2023-05-04T09:56:41.443Z,74.63
2023-05-04T09:59:10.793Z,75.74
2023-05-04T10:01:38.628Z,76.08
2023-05-04T10:04:07.233Z,74.20
2023-05-04T10:06:35.053Z,74.69
2023-05-04T10:09:02.610Z,74.27
2023-05-04T10:11:30.938Z,73.29
2023-05-04T10:13:58.613Z,73.59
2023-05-04T10:16:43.359Z,74.35
2023-05-04T10:19:32.291Z,76.23
2023-05-04T10:22:56.663Z,78.05
2023-05-04T10:25:35.331Z,77.35
2023-05-04T10:28:20.953Z,78.27
2023-05-04T10:30:48.557Z,78.86
2023-05-04T10:33:16.493Z,80.11
2023-05-04T10:35:54.108Z,82.95
2023-05-04T10:38:42.397Z,81.04
2023-05-04T10:41:19.882Z,81.03
2023-05-04T10:43:53.550Z,80.56
2023-05-04T10:46:22.868Z,78.14
2023-05-04T10:48:51.140Z,76.01
2023-05-04T10:51:25.299Z,75.05
2023-05-04T10:53:55.827Z,73.51
2023-05-04T10:56:25.340Z,73.78
2023-05-04T10:58:53.934Z,72.06
2023-05-04T11:01:22.366Z,73.03
2023-05-04T11:03:51.612Z,71.21
2023-05-04T11:06:24.008Z,70.86
2023-05-04T11:09:03.292Z,72.47
2023-05-04T11:11:36.787Z,72.37
2023-05-04T11:14:04.426Z,72.71
2023-05-04T11:16:31.919Z,73.22
2023-05-04T11:19:12.644Z,74.47
2023-05-04T11:21:40.876Z,74.46
2023-05-04T11:24:09.072Z,74.53
2023-05-04T11:26:48.790Z,75.24
2023-05-04T11:29:16.905Z,73.59
2023-05-04T11:31:54.842Z,72.89
2023-05-04T11:34:22.548Z,72.54
2023-05-04T11:36:50.201Z,73.30
2023-05-04T11:39:17.745Z,72.83
2023-05-04T11:41:45.141Z,75.47
2023-05-04T11:44:13.352Z,75.37
2023-05-04T11:46:41.140Z,75.32
2023-05-04T11:49:08.959Z,74.94
2023-05-04T11:51:36.440Z,76.08
2023-05-04T11:54:04.328Z,75.74
2023-05-04T11:56:41.495Z,71.03
2023-05-04T11:59:10.937Z,70.49
2023-05-04T12:01:38.683Z,69.64
2023-05-04T12:04:06.560Z,70.61
2023-05-04T12:06:34.209Z,71.00
2023-05-04T12:09:03.517Z,71.37
2023-05-04T12:11:30.935Z,71.14
2023-05-04T12:14:14.138Z,68.34
2023-05-04T12:16:43.324Z,67.53
2023-05-04T12:19:13.253Z,69.37
2023-05-04T12:21:52.517Z,68.86
2023-05-04T12:24:24.097Z,68.79
2023-05-04T12:26:51.683Z,69.22
2023-05-04T12:29:19.230Z,69.35
2023-05-04T12:31:47.686Z,69.24
2023-05-04T12:34:15.232Z,69.73
2023-05-04T12:36:44.634Z,70.03
2023-05-04T12:39:12.011Z,70.57
2023-05-04T12:41:40.290Z,71.27
2023-05-04T12:44:09.292Z,70.48
2023-05-04T12:46:37.547Z,70.08
2023-05-04T12:49:05.057Z,70.38
2023-05-04T12:51:32.542Z,68.07
2023-05-04T12:54:00.130Z,67.85
2023-05-04T12:56:27.708Z,67.75
2023-05-04T12:58:55.329Z,68.55
2023-05-04T13:01:23.134Z,69.08
2023-05-04T13:03:50.740Z,68.46
2023-05-04T13:06:18.279Z,68.36
2023-05-04T13:08:47.289Z,68.07
2023-05-04T13:11:19.301Z,68.99
2023-05-04T13:13:47.069Z,69.40
2023-05-04T13:16:14.683Z,69.13
2023-05-04T13:18:42.643Z,68.04
2023-05-04T13:21:10.114Z,67.17
2023-05-04T13:23:37.867Z,66.97
2023-05-04T13:26:06.504Z,67.43
2023-05-04T13:28:33.905Z,67.73
2023-05-04T13:31:01.783Z,67.12
2023-05-04T13:33:30.724Z,66.95
2023-05-04T13:35:59.176Z,66.10
2023-05-04T13:38:27.443Z,67.45
2023-05-04T13:40:56.074Z,68.92
2023-05-04T13:43:23.886Z,70.16
2023-05-04T13:45:51.428Z,71.24
2023-05-04T13:48:19.234Z,71.08
2023-05-04T13:50:46.974Z,70.97
2023-05-04T13:53:14.505Z,71.00
2023-05-04T13:55:42.006Z,71.64
2023-05-04T13:58:09.947Z,70.58
2023-05-04T14:00:38.208Z,71.12
2023-05-04T14:03:05.741Z,70.00
2023-05-04T14:05:35.512Z,70.78
2023-05-04T14:08:03.359Z,70.60
2023-05-04T14:10:30.904Z,68.37
2023-05-04T14:12:58.464Z,68.02
2023-05-04T14:15:27.557Z,67.59
2023-05-04T14:17:55.255Z,66.76
2023-05-04T14:20:22.955Z,67.70
2023-05-04T14:22:50.419Z,67.98
2023-05-04T14:25:17.958Z,66.57
2023-05-04T14:27:45.496Z,67.38
2023-05-04T14:30:13.268Z,65.56
2023-05-04T14:32:41.668Z,64.90
2023-05-04T14:35:10.977Z,65.67
2023-05-04T14:37:40.157Z,66.94
2023-05-04T14:40:09.576Z,67.86
2023-05-04T14:42:37.510Z,69.64
2023-05-04T14:45:06.976Z,70.07
2023-05-04T14:47:35.340Z,69.71
2023-05-04T14:50:03.020Z,68.94
2023-05-04T14:52:30.834Z,68.76
2023-05-04T14:54:58.339Z,67.69
2023-05-04T14:57:25.796Z,68.63
2023-05-04T14:59:53.220Z,68.28
2023-05-04T15:02:21.046Z,69.67
2023-05-04T15:04:48.926Z,70.33
2023-05-04T15:07:18.743Z,70.32
2023-05-04T15:09:46.728Z,69.39
2023-05-04T15:12:14.262Z,69.39
2023-05-04T15:14:41.644Z,66.78
2023-05-04T15:17:09.565Z,67.61
2023-05-04T15:19:38.619Z,68.12
2023-05-04T15:22:06.836Z,68.32
2023-05-04T15:24:34.328Z,69.10
2023-05-04T15:27:02.205Z,69.83
2023-05-04T15:29:29.890Z,70.10
2023-05-04T15:31:57.376Z,70.13
2023-05-04T15:34:24.812Z,69.64
2023-05-04T15:36:52.682Z,70.57
2023-05-04T15:39:20.180Z,69.69
2023-05-04T15:41:47.902Z,70.56
2023-05-04T15:44:15.364Z,70.03
2023-05-04T15:46:43.271Z,70.25
2023-05-04T15:49:11.008Z,70.27
2023-05-04T15:51:38.569Z,69.94
2023-05-04T15:54:06.144Z,70.38
2023-05-04T15:56:33.661Z,71.12
2023-05-04T15:59:01.272Z,71.18
2023-05-04T16:01:28.887Z,70.70
2023-05-04T16:03:59.548Z,71.56
2023-05-04T16:06:27.886Z,71.18
2023-05-04T16:08:55.601Z,71.83
2023-05-04T16:11:23.141Z,73.22
2023-05-04T16:13:56.092Z,73.52
2023-05-04T16:16:25.122Z,74.29
2023-05-04T16:18:53.757Z,72.76
2023-05-04T16:21:21.386Z,73.27
2023-05-04T16:23:48.818Z,72.61
2023-05-04T16:26:16.727Z,72.36
2023-05-04T16:28:45.487Z,72.06
2023-05-04T16:31:13.256Z,73.15
2023-05-04T16:33:47.170Z,73.76
2023-05-04T16:36:15.295Z,74.91
2023-05-04T16:38:42.735Z,76.02
2023-05-04T16:41:10.217Z,76.49
2023-05-04T16:43:37.649Z,76.60
2023-05-04T16:46:05.246Z,77.31
2023-05-04T16:48:32.959Z,76.86
2023-05-04T16:51:00.514Z,78.03
2023-05-04T16:53:27.887Z,79.68
2023-05-04T16:55:55.427Z,82.59
2023-05-04T16:58:23.106Z,84.47
2023-05-04T17:00:51.099Z,87.06
2023-05-04T17:03:18.640Z,87.94
2023-05-04T17:05:46.218Z,85.66
2023-05-04T17:08:13.744Z,85.56
2023-05-04T17:10:41.284Z,82.86
2023-05-04T17:13:09.013Z,83.58
2023-05-04T17:15:36.669Z,82.47
2023-05-04T17:18:08.268Z,83.26
2023-05-04T17:20:35.905Z,83.92
2023-05-04T17:23:03.595Z,83.66
2023-05-04T17:25:31.325Z,82.11
2023-05-04T17:27:58.733Z,83.07
2023-05-04T17:30:26.472Z,82.13
2023-05-04T17:32:55.757Z,82.13
2023-05-04T17:35:26.256Z,80.01
2023-05-04T17:37:58.582Z,80.45
2023-05-04T17:40:28.004Z,80.17
2023-05-04T17:42:57.065Z,81.16
2023-05-04T17:45:24.829Z,80.17
2023-05-04T17:47:52.671Z,79.88
2023-05-04T17:50:21.228Z,80.01
2023-05-04T17:52:55.704Z,79.98
2023-05-04T17:55:27.739Z,80.10
2023-05-04T17:57:55.389Z,81.52
2023-05-04T18:00:23.020Z,82.18
2023-05-04T18:02:50.710Z,82.77
2023-05-04T18:05:18.272Z,82.72
2023-05-04T18:07:45.841Z,83.52
2023-05-04T18:10:13.256Z,84.17
2023-05-04T18:12:40.847Z,84.01
2023-05-04T18:15:09.250Z,84.91
2023-05-04T18:17:39.846Z,86.00
2023-05-04T18:20:09.161Z,86.75
2023-05-04T18:22:37.211Z,87.03
2023-05-04T18:25:05.116Z,86.99
2023-05-04T18:27:33.786Z,86.85
2023-05-04T18:30:02.339Z,87.48
2023-05-04T18:32:29.938Z,87.91
2023-05-04T18:35:01.405Z,88.09
2023-05-04T18:37:32.152Z,87.61
2023-05-04T18:39:59.844Z,88.74
2023-05-04T18:42:27.507Z,89.25
2023-05-04T18:44:55.099Z,89.37
2023-05-04T18:47:22.484Z,89.98
2023-05-04T18:49:54.717Z,90.07
2023-05-04T18:52:22.506Z,91.28
2023-05-04T18:54:50.077Z,91.53
2023-05-04T18:57:17.913Z,92.40
2023-05-04T18:59:45.545Z,91.86
2023-05-04T19:02:13.196Z,91.72
2023-05-04T19:04:40.801Z,91.97
2023-05-04T19:07:10.018Z,91.16
2023-05-04T19:09:37.873Z,91.50
2023-05-04T19:12:05.696Z,92.32
2023-05-04T19:14:33.435Z,93.17
2023-05-04T19:17:01.487Z,93.06
2023-05-04T19:19:28.991Z,94.07
2023-05-04T19:21:56.600Z,94.74
2023-05-04T19:24:24.281Z,96.25
2023-05-04T19:26:51.849Z,97.32
2023-05-04T19:29:19.525Z,97.17
2023-05-04T19:31:47.376Z,97.32
2023-05-04T19:34:17.471Z,97.98
2023-05-04T19:36:45.490Z,98.06
2023-05-04T19:39:13.409Z,97.99
2023-05-04T19:41:41.033Z,99.13
2023-05-04T19:44:10.236Z,99.01
2023-05-04T19:46:38.047Z,100.00
2023-05-04T19:49:05.664Z,100.00
2023-05-04T19:51:33.263Z,100.00
2023-05-04T19:54:00.807Z,99.92
2023-05-04T19:56:28.412Z,100.00
2023-05-04T19:58:55.887Z,100.00
2023-05-04T20:01:23.334Z,100.00
2023-05-04T20:03:50.770Z,100.00
2023-05-04T20:06:18.319Z,100.00
2023-05-04T20:08:46.011Z,100.00
2023-05-04T20:11:14.068Z,100.00
2023-05-04T20:13:42.690Z,100.00
2023-05-04T20:16:10.250Z,100.00
2023-05-04T20:18:37.720Z,100.00
2023-05-04T20:21:05.561Z,100.00
2023-05-04T20:23:33.551Z,100.00
2023-05-04T20:26:02.552Z,100.00
2023-05-04T20:28:32.584Z,100.00
2023-05-04T20:31:00.244Z,100.00
2023-05-04T20:33:27.681Z,100.00
2023-05-04T20:35:55.461Z,100.00
2023-05-04T20:38:23.026Z,100.00
2023-05-04T20:40:52.439Z,100.00
2023-05-04T20:43:20.184Z,100.00
2023-05-04T20:45:47.811Z,100.00
2023-05-04T20:48:15.323Z,100.00
2023-05-04T20:50:42.962Z,100.00
2023-05-04T20:53:10.382Z,100.00
2023-05-04T20:55:43.519Z,100.00
2023-05-04T20:58:11.662Z,100.00
2023-05-04T21:00:40.214Z,100.00
2023-05-04T21:03:07.852Z,100.00
2023-05-04T21:05:38.770Z,100.00
2023-05-04T21:08:06.523Z,100.00
2023-05-04T21:10:33.953Z,100.00
2023-05-04T21:13:01.492Z,100.00
2023-05-04T21:15:28.940Z,100.00
2023-05-04T21:17:56.507Z,100.00
2023-05-04T21:20:23.976Z,100.00
2023-05-04T21:22:51.534Z,100.00
2023-05-04T21:25:18.976Z,100.00
2023-05-04T21:27:46.455Z,100.00
2023-05-04T21:30:13.943Z,100.00
2023-05-04T21:32:41.701Z,100.00
2023-05-04T21:35:09.530Z,100.00
2023-05-04T21:37:37.346Z,100.00
2023-05-04T21:40:05.526Z,100.00
2023-05-04T21:42:33.168Z,100.00
2023-05-04T21:45:00.683Z,100.00
2023-05-04T21:47:28.471Z,100.00
2023-05-04T21:49:55.982Z,100.00
2023-05-04T21:52:24.357Z,100.00
2023-05-04T21:54:51.870Z,100.00
2023-05-04T21:57:19.549Z,100.00
2023-05-04T21:59:50.326Z,100.00
2023-05-04T22:02:17.993Z,100.00
2023-05-04T22:04:45.717Z,100.00
2023-05-04T22:07:13.292Z,100.00
2023-05-04T22:09:40.721Z,100.00
2023-05-04T22:12:08.377Z,100.00
2023-05-04T22:14:35.803Z,100.00
2023-05-04T22:17:03.669Z,100.00
2023-05-04T22:19:31.179Z,100.00
2023-05-04T22:21:58.864Z,100.00
2023-05-04T22:24:26.876Z,100.00
2023-05-04T22:26:54.618Z,100.00
2023-05-04T22:29:22.391Z,100.00
2023-05-04T22:31:49.923Z,100.00
2023-05-04T22:34:17.317Z,100.00
2023-05-04T22:36:44.838Z,100.00
2023-05-04T22:39:12.342Z,100.00
2023-05-04T22:41:39.823Z,100.00
2023-05-04T22:44:07.483Z,100.00
2023-05-04T22:46:35.216Z,100.00
2023-05-04T22:49:02.856Z,100.00
2023-05-04T22:51:30.530Z,100.00
2023-05-04T22:53:57.939Z,100.00
2023-05-04T22:56:26.020Z,100.00
2023-05-04T22:58:53.564Z,100.00
2023-05-04T23:01:21.404Z,100.00
2023-05-04T23:03:49.101Z,100.00
2023-05-04T23:06:16.710Z,100.00
2023-05-04T23:08:45.487Z,100.00
2023-05-04T23:11:14.426Z,100.00
2023-05-04T23:13:41.901Z,100.00
2023-05-04T23:16:09.451Z,100.00
2023-05-04T23:18:37.071Z,100.00
2023-05-04T23:21:04.792Z,100.00
2023-05-04T23:23:32.158Z,100.00
2023-05-04T23:25:59.598Z,100.00
2023-05-04T23:28:27.136Z,100.00
2023-05-04T23:30:55.890Z,100.00
2023-05-04T23:33:23.412Z,100.00
2023-05-04T23:35:54.889Z,100.00
2023-05-04T23:38:23.053Z,100.00
2023-05-04T23:40:51.835Z,100.00
2023-05-04T23:43:19.784Z,100.00
2023-05-04T23:45:47.232Z,100.00
2023-05-04T23:48:14.781Z,100.00
2023-05-04T23:50:52.789Z,100.00
2023-05-04T23:53:20.744Z,100.00
2023-05-04T23:56:02.661Z,100.00
2023-05-04T23:58:31.502Z,100.00
